Time;durP1;ratioP1;P1;durP2;ratioP2;P2;SDS_P1;SDS_P2;PMS_P1;PMS_P2;Temp;Humidity;BMP_temperature;BMP_pressure;BME280_temperature;BME280_humidity;BME280_pressure;Samples;Min_cycle;Max_cycle;Signal;HPM_P1;HPM_P2
2023/03/04 00:01:12;;;;;;;13.98;2.20;;;6.30;99.90;;;;;;5050392;28;20037;-57
2023/03/04 00:03:38;;;;;;;16.95;2.28;;;6.30;99.90;;;;;;5050952;28;20475;-59
2023/03/04 00:06:04;;;;;;;13.88;2.80;;;6.40;99.90;;;;;;5051436;28;20090;-57
2023/03/04 00:08:30;;;;;;;18.63;2.80;;;6.40;99.90;;;;;;5050434;28;20700;-57
2023/03/04 00:10:56;;;;;;;11.30;2.30;;;6.40;99.90;;;;;;5052918;28;20130;-58
2023/03/04 00:13:23;;;;;;;13.48;2.35;;;6.30;99.90;;;;;;5033182;28;20033;-60
2023/03/04 00:15:48;;;;;;;16.58;2.70;;;6.40;99.90;;;;;;5051235;28;20053;-58
2023/03/04 00:18:15;;;;;;;13.05;2.47;;;6.30;99.90;;;;;;5049283;28;20040;-56
2023/03/04 00:20:41;;;;;;;15.38;2.30;;;6.30;99.90;;;;;;5050163;28;20048;-56
2023/03/04 00:23:07;;;;;;;15.90;2.40;;;6.40;99.90;;;;;;5050665;28;20047;-59
2023/03/04 00:25:32;;;;;;;16.33;2.40;;;6.30;99.90;;;;;;5050726;28;20120;-57
2023/03/04 00:27:58;;;;;;;17.00;2.17;;;6.30;99.90;;;;;;5041524;28;20044;-59
2023/03/04 00:30:25;;;;;;;18.52;2.70;;;6.40;99.90;;;;;;5045110;28;20029;-59
2023/03/04 00:32:51;;;;;;;19.60;3.00;;;6.40;99.90;;;;;;5050867;28;20672;-56
2023/03/04 00:35:17;;;;;;;12.50;2.50;;;6.40;99.90;;;;;;5048355;28;20048;-58
2023/03/04 00:37:43;;;;;;;13.68;2.55;;;6.40;99.90;;;;;;5050993;28;20037;-57
2023/03/04 00:40:11;;;;;;;20.85;2.75;;;6.30;99.90;;;;;;5032885;28;20395;-58
2023/03/04 00:42:36;;;;;;;21.83;3.20;;;6.40;99.90;;;;;;5032787;28;20079;-58
2023/03/04 00:45:03;;;;;;;23.10;2.97;;;6.40;99.90;;;;;;5049338;28;20045;-60
2023/03/04 00:47:28;;;;;;;12.82;2.08;;;6.40;99.90;;;;;;5050331;28;20056;-60
2023/03/04 00:49:54;;;;;;;14.05;2.28;;;6.40;99.90;;;;;;5030822;28;20034;-57
2023/03/04 00:52:20;;;;;;;25.80;2.95;;;6.30;99.90;;;;;;5032466;28;20080;-59
2023/03/04 00:54:45;;;;;;;19.35;2.50;;;6.30;99.90;;;;;;5049821;28;20041;-57
2023/03/04 00:57:11;;;;;;;14.85;3.10;;;6.30;99.90;;;;;;5052266;28;20105;-59
2023/03/04 01:02:12;;;;;;;12.38;2.22;;;6.30;99.90;;;;;;5058523;28;20056;-63
2023/03/04 01:04:38;;;;;;;16.52;2.53;;;6.30;99.90;;;;;;5060496;28;20130;-63
2023/03/04 01:07:04;;;;;;;18.00;2.83;;;6.30;99.90;;;;;;5030390;28;20464;-63
2023/03/04 01:09:30;;;;;;;14.13;2.33;;;6.20;99.90;;;;;;5028194;28;20499;-62
2023/03/04 01:11:56;;;;;;;20.70;2.40;;;6.30;99.90;;;;;;5038777;28;20076;-61
2023/03/04 01:14:21;;;;;;;14.57;2.63;;;6.20;99.90;;;;;;5033989;28;20102;-61
2023/03/04 01:16:48;;;;;;;15.57;2.45;;;6.20;99.90;;;;;;5038541;28;20522;-62
2023/03/04 01:19:13;;;;;;;12.68;2.28;;;6.20;99.90;;;;;;5050496;28;20048;-62
2023/03/04 01:21:39;;;;;;;18.73;2.65;;;6.20;99.90;;;;;;5054963;28;20032;-62
2023/03/04 01:24:05;;;;;;;15.15;2.40;;;6.30;99.90;;;;;;4998602;28;20125;-62
2023/03/04 01:26:30;;;;;;;9.70;1.70;;;6.20;99.90;;;;;;5027792;28;20045;-63
2023/03/04 01:28:56;;;;;;;19.00;3.65;;;6.20;99.90;;;;;;5017016;28;20045;-61
2023/03/04 01:31:22;;;;;;;10.70;2.85;;;6.20;99.90;;;;;;5010934;28;20495;-62
2023/03/04 01:33:47;;;;;;;16.50;2.55;;;6.20;99.90;;;;;;5037813;28;20111;-62
2023/03/04 01:36:13;;;;;;;12.23;1.98;;;6.30;99.90;;;;;;5049902;28;20041;-63
2023/03/04 01:38:39;;;;;;;16.77;2.33;;;6.30;99.90;;;;;;5031352;28;20091;-61
2023/03/04 01:41:06;;;;;;;11.82;2.28;;;6.30;99.90;;;;;;5018145;28;20048;-61
2023/03/04 01:43:34;;;;;;;18.17;2.88;;;6.30;99.90;;;;;;5035783;28;20110;-61
2023/03/04 01:46:00;;;;;;;18.15;3.35;;;6.30;99.90;;;;;;5035833;28;20395;-63
2023/03/04 01:48:44;;;;;;;11.20;2.70;;;6.30;99.90;;;;;;5034942;28;20029;-62
2023/03/04 01:51:13;;;;;;;13.73;2.65;;;6.30;99.90;;;;;;5023079;28;20182;-62
2023/03/04 01:53:39;;;;;;;15.70;2.65;;;6.20;99.90;;;;;;5039019;28;20123;-61
2023/03/04 01:56:17;;;;;;;15.13;2.58;;;6.20;99.90;;;;;;5051153;28;20116;-62
2023/03/04 01:58:43;;;;;;;17.90;2.75;;;6.20;99.90;;;;;;5033136;28;20049;-62
2023/03/04 02:01:13;;;;;;;23.65;3.13;;;6.20;99.90;;;;;;5034122;28;20052;-62
2023/03/04 02:03:39;;;;;;;11.95;2.67;;;6.20;99.90;;;;;;5028936;28;20547;-61
2023/03/04 02:06:05;;;;;;;12.82;3.25;;;6.20;99.90;;;;;;5026433;28;20048;-62
2023/03/04 02:08:31;;;;;;;14.88;2.58;;;6.20;99.90;;;;;;5021081;28;20040;-63
2023/03/04 02:10:57;;;;;;;19.20;3.22;;;6.20;99.90;;;;;;5036817;28;20037;-61
2023/03/04 02:13:22;;;;;;;13.65;2.45;;;6.20;99.90;;;;;;5030732;28;20044;-61
2023/03/04 02:15:48;;;;;;;9.35;2.15;;;6.20;99.90;;;;;;5035433;28;20052;-62
2023/03/04 02:18:16;;;;;;;15.93;3.13;;;6.30;99.90;;;;;;5060592;28;20040;-61
2023/03/04 02:21:12;;;;;;;15.07;2.75;;;6.20;99.90;;;;;;5016566;28;20045;-61
2023/03/04 02:23:50;;;;;;;16.63;2.85;;;6.30;99.90;;;;;;5015274;28;20049;-62
2023/03/04 02:26:25;;;;;;;15.02;1.95;;;6.30;99.90;;;;;;5041585;28;20045;-61
2023/03/04 02:28:52;;;;;;;13.55;2.70;;;6.30;99.90;;;;;;5020829;28;20484;-62
2023/03/04 02:31:27;;;;;;;15.38;2.75;;;6.30;99.90;;;;;;5042607;28;20073;-61
2023/03/04 02:33:56;;;;;;;13.30;2.30;;;6.30;99.90;;;;;;5037553;28;20072;-62
2023/03/04 02:36:22;;;;;;;16.52;3.03;;;6.20;99.90;;;;;;5053130;28;20052;-62
2023/03/04 02:38:52;;;;;;;13.20;2.35;;;6.20;99.90;;;;;;5020805;28;20037;-62
2023/03/04 02:41:22;;;;;;;18.20;2.97;;;6.30;99.90;;;;;;5033671;28;20044;-62
2023/03/04 02:43:51;;;;;;;11.75;3.60;;;6.30;99.90;;;;;;5054527;28;20499;-62
2023/03/04 02:46:17;;;;;;;15.48;2.60;;;6.30;99.90;;;;;;5041046;28;20051;-62
2023/03/04 02:48:43;;;;;;;11.77;2.63;;;6.30;99.90;;;;;;5035429;28;20358;-61
2023/03/04 02:51:09;;;;;;;13.20;2.45;;;6.30;99.90;;;;;;5036342;28;20047;-62
2023/03/04 02:53:35;;;;;;;17.30;2.33;;;6.30;99.90;;;;;;5019410;28;20391;-61
2023/03/04 02:56:01;;;;;;;14.20;2.53;;;6.20;99.90;;;;;;5042482;28;20048;-61
2023/03/04 02:58:26;;;;;;;14.50;2.67;;;6.20;99.90;;;;;;5058677;28;20041;-61
2023/03/04 03:00:52;;;;;;;12.13;2.58;;;6.30;99.90;;;;;;5052574;28;20055;-62
2023/03/04 03:03:18;;;;;;;19.25;2.20;;;6.30;99.90;;;;;;5018331;28;20037;-62
2023/03/04 03:05:44;;;;;;;10.38;2.80;;;6.30;99.90;;;;;;5038385;28;20049;-63
2023/03/04 03:08:10;;;;;;;17.80;2.22;;;6.30;99.90;;;;;;5016885;28;20106;-62
2023/03/04 03:10:36;;;;;;;11.13;2.15;;;6.30;99.90;;;;;;5051078;28;20041;-62
2023/03/04 03:13:01;;;;;;;11.38;2.20;;;6.30;99.90;;;;;;5032387;28;20044;-61
2023/03/04 03:15:27;;;;;;;17.23;2.40;;;6.30;99.90;;;;;;5031251;28;20098;-63
2023/03/04 03:17:53;;;;;;;10.52;1.88;;;6.30;99.90;;;;;;5010646;28;20041;-62
2023/03/04 03:20:19;;;;;;;21.85;2.60;;;6.30;99.90;;;;;;5051270;28;20037;-61
2023/03/04 03:22:45;;;;;;;14.05;2.42;;;6.30;99.90;;;;;;5046916;28;20094;-62
2023/03/04 03:25:13;;;;;;;15.57;2.17;;;6.30;99.90;;;;;;5049961;28;20045;-61
2023/03/04 03:27:39;;;;;;;11.98;1.83;;;6.30;99.90;;;;;;5027513;28;20042;-62
2023/03/04 03:30:08;;;;;;;14.13;2.97;;;6.30;99.90;;;;;;5015191;28;20515;-62
2023/03/04 03:32:34;;;;;;;15.18;2.60;;;6.30;99.90;;;;;;5030969;28;20037;-62
2023/03/04 03:34:59;;;;;;;13.40;2.55;;;6.30;99.90;;;;;;5038857;28;20474;-62
2023/03/04 03:37:25;;;;;;;16.52;2.50;;;6.30;99.90;;;;;;5041483;28;20052;-62
2023/03/04 03:39:51;;;;;;;10.35;1.67;;;6.30;99.90;;;;;;5042684;28;20126;-62
2023/03/04 03:42:17;;;;;;;12.98;2.08;;;6.30;99.90;;;;;;5031811;28;20111;-62
2023/03/04 03:44:42;;;;;;;16.45;2.53;;;6.30;99.90;;;;;;5033926;28;20103;-64
2023/03/04 03:47:08;;;;;;;11.70;1.98;;;6.30;99.90;;;;;;5019930;28;20396;-62
2023/03/04 03:49:34;;;;;;;10.45;1.77;;;6.40;99.90;;;;;;5015133;28;20072;-62
2023/03/04 03:51:59;;;;;;;15.65;2.10;;;6.30;99.90;;;;;;5018051;28;20040;-61
2023/03/04 03:54:25;;;;;;;9.85;2.75;;;6.40;99.90;;;;;;5006373;28;20547;-62
2023/03/04 03:56:51;;;;;;;11.77;3.15;;;6.30;99.90;;;;;;5041523;28;20515;-61
2023/03/04 03:59:16;;;;;;;6.25;1.48;;;6.40;99.90;;;;;;5035752;28;20114;-62
2023/03/04 04:01:42;;;;;;;11.00;1.70;;;6.40;99.90;;;;;;5038268;28;20383;-62
2023/03/04 04:04:08;;;;;;;8.60;1.38;;;6.40;99.90;;;;;;5040260;28;20033;-63
2023/03/04 04:06:34;;;;;;;11.80;1.75;;;6.40;99.90;;;;;;5037999;28;20105;-61
2023/03/04 04:08:59;;;;;;;9.32;1.33;;;6.40;99.90;;;;;;5033420;28;20109;-61
2023/03/04 04:11:25;;;;;;;10.45;1.70;;;6.40;99.90;;;;;;5049744;28;20090;-62
2023/03/04 04:13:51;;;;;;;13.60;1.80;;;6.40;99.90;;;;;;5038649;28;20087;-62
2023/03/04 04:16:16;;;;;;;8.93;2.05;;;6.40;99.90;;;;;;5034228;28;20049;-62
2023/03/04 04:18:42;;;;;;;8.52;1.55;;;6.40;99.90;;;;;;5051956;28;20045;-61
2023/03/04 04:21:08;;;;;;;10.18;1.52;;;6.40;99.90;;;;;;5035422;28;20102;-62
2023/03/04 04:23:34;;;;;;;12.43;1.67;;;6.40;99.90;;;;;;5015423;28;20429;-62
2023/03/04 04:26:00;;;;;;;7.35;1.10;;;6.50;99.90;;;;;;5019015;28;20056;-62
2023/03/04 04:28:25;;;;;;;9.18;1.65;;;6.50;99.90;;;;;;5031533;28;20072;-62
2023/03/04 04:30:51;;;;;;;10.02;2.17;;;6.50;99.90;;;;;;5033558;28;20045;-62
2023/03/04 04:33:17;;;;;;;11.10;1.63;;;6.50;99.90;;;;;;5029453;28;20048;-61
2023/03/04 04:35:42;;;;;;;7.28;1.63;;;6.50;99.90;;;;;;5029275;28;20072;-61
2023/03/04 04:38:09;;;;;;;8.70;1.42;;;6.50;99.90;;;;;;5021267;28;20080;-62
2023/03/04 04:40:35;;;;;;;8.55;1.52;;;6.60;99.90;;;;;;5051288;28;20088;-62
2023/03/04 04:43:01;;;;;;;10.50;1.40;;;6.60;99.90;;;;;;5045583;28;20116;-62
2023/03/04 04:45:27;;;;;;;7.45;1.70;;;6.60;99.90;;;;;;5049740;28;20494;-62
2023/03/04 04:47:56;;;;;;;11.88;1.35;;;6.50;99.90;;;;;;5012847;28;20116;-63
2023/03/04 04:50:22;;;;;;;7.75;1.75;;;6.50;99.90;;;;;;5031483;28;20045;-62
2023/03/04 04:52:48;;;;;;;7.07;1.42;;;6.50;99.90;;;;;;5021857;28;20029;-61
2023/03/04 04:55:15;;;;;;;9.15;1.33;;;6.50;99.90;;;;;;5054107;28;20082;-61
2023/03/04 04:57:40;;;;;;;7.63;1.17;;;6.40;99.90;;;;;;5037316;28;20049;-62
2023/03/04 05:00:07;;;;;;;6.57;1.55;;;6.30;99.90;;;;;;5033170;28;20063;-62
2023/03/04 05:02:35;;;;;;;9.75;1.25;;;6.20;99.90;;;;;;5048638;28;20040;-61
2023/03/04 05:05:05;;;;;;;9.25;1.52;;;6.20;99.90;;;;;;5048200;28;20067;-62
2023/03/04 05:07:31;;;;;;;6.28;1.35;;;6.20;99.90;;;;;;5026835;28;20087;-62
2023/03/04 05:09:57;;;;;;;5.30;1.10;;;6.20;99.90;;;;;;5032509;28;20037;-61
2023/03/04 05:12:22;;;;;;;10.68;1.45;;;6.10;99.90;;;;;;5029688;28;20051;-62
2023/03/04 05:14:48;;;;;;;7.80;1.30;;;6.10;99.90;;;;;;5037173;28;20040;-62
2023/03/04 05:17:14;;;;;;;8.05;1.30;;;6.10;99.90;;;;;;5015566;28;20051;-61
2023/03/04 05:19:39;;;;;;;12.80;1.67;;;6.10;99.90;;;;;;5038188;28;20049;-62
2023/03/04 05:22:05;;;;;;;7.22;1.73;;;6.10;99.90;;;;;;5020190;28;20080;-62
2023/03/04 05:24:31;;;;;;;11.38;1.40;;;6.10;99.90;;;;;;5034865;28;20144;-61
2023/03/04 05:26:56;;;;;;;8.85;1.50;;;6.10;99.90;;;;;;5047183;28;20041;-62
2023/03/04 05:29:22;;;;;;;8.85;1.63;;;6.10;99.90;;;;;;5039134;28;20064;-61
2023/03/04 05:31:48;;;;;;;12.30;1.73;;;6.10;99.90;;;;;;5050673;28;20036;-62
2023/03/04 05:34:13;;;;;;;13.50;1.40;;;6.10;99.90;;;;;;5032238;28;20124;-62
2023/03/04 05:36:39;;;;;;;9.25;1.50;;;6.10;99.90;;;;;;5015950;28;20045;-62
2023/03/04 05:39:05;;;;;;;16.10;3.30;;;6.20;99.90;;;;;;5022578;28;20041;-63
2023/03/04 05:41:30;;;;;;;11.73;1.70;;;6.20;99.90;;;;;;5036316;28;20048;-62
2023/03/04 05:43:56;;;;;;;11.52;1.67;;;6.20;99.90;;;;;;5046533;28;20112;-62
2023/03/04 05:46:24;;;;;;;9.00;2.15;;;6.10;99.90;;;;;;5020794;28;20094;-62
2023/03/04 05:48:51;;;;;;;7.90;1.48;;;6.10;99.90;;;;;;5044053;28;20044;-61
2023/03/04 05:51:17;;;;;;;10.57;1.75;;;6.20;99.90;;;;;;5033354;28;20059;-62
2023/03/04 05:53:43;;;;;;;16.13;1.60;;;6.20;99.90;;;;;;5047500;28;20090;-62
2023/03/04 05:56:11;;;;;;;8.57;1.38;;;6.20;99.90;;;;;;5039908;28;20469;-61
2023/03/04 05:58:37;;;;;;;8.80;1.63;;;6.20;99.90;;;;;;5032274;28;20040;-62
2023/03/04 06:01:03;;;;;;;9.70;2.95;;;6.20;99.90;;;;;;5030400;28;20488;-62
2023/03/04 06:03:29;;;;;;;10.55;1.88;;;6.20;99.90;;;;;;5033161;28;20399;-61
2023/03/04 06:05:55;;;;;;;11.27;1.60;;;6.20;99.90;;;;;;5050569;28;20033;-61
2023/03/04 06:08:21;;;;;;;6.32;1.73;;;6.20;99.90;;;;;;5033890;28;20041;-62
2023/03/04 06:10:46;;;;;;;10.18;1.35;;;6.20;99.90;;;;;;5050297;28;20065;-61
2023/03/04 06:13:12;;;;;;;11.40;1.63;;;6.10;99.90;;;;;;5040855;28;20091;-62
2023/03/04 06:15:38;;;;;;;12.90;1.95;;;6.10;99.90;;;;;;5028703;28;20041;-61
2023/03/04 06:18:05;;;;;;;12.77;1.95;;;6.00;99.90;;;;;;5035382;28;20073;-62
2023/03/04 06:20:31;;;;;;;8.15;1.60;;;6.00;99.90;;;;;;5030991;28;20082;-61
2023/03/04 06:22:57;;;;;;;9.90;1.60;;;6.00;99.90;;;;;;5019489;28;20040;-61
2023/03/04 06:25:23;;;;;;;7.90;1.80;;;6.00;99.90;;;;;;5049882;28;20037;-61
2023/03/04 06:27:49;;;;;;;11.63;1.55;;;6.00;99.90;;;;;;5017590;28;20041;-60
2023/03/04 06:30:15;;;;;;;10.02;1.60;;;6.00;99.90;;;;;;5009060;28;20117;-63
2023/03/04 06:32:43;;;;;;;9.80;1.95;;;6.00;99.90;;;;;;5050402;28;20041;-62
2023/03/04 06:35:10;;;;;;;8.00;1.70;;;6.00;99.90;;;;;;5031160;28;20091;-62
2023/03/04 06:37:36;;;;;;;11.70;2.10;;;6.00;99.90;;;;;;5014016;28;20044;-61
2023/03/04 06:40:03;;;;;;;9.07;2.30;;;6.00;99.90;;;;;;5046446;28;20082;-61
2023/03/04 06:42:29;;;;;;;10.57;2.08;;;6.00;99.90;;;;;;5030345;28;20126;-62
2023/03/04 06:44:55;;;;;;;13.25;1.95;;;6.00;99.90;;;;;;5031775;28;20048;-62
2023/03/04 06:47:21;;;;;;;14.70;2.38;;;5.90;99.90;;;;;;5050706;28;20033;-62
2023/03/04 06:49:46;;;;;;;12.30;2.92;;;6.00;99.90;;;;;;5049965;28;20041;-62
2023/03/04 06:52:12;;;;;;;8.88;2.30;;;6.00;99.90;;;;;;5049002;28;20466;-61
2023/03/04 06:54:39;;;;;;;11.68;2.20;;;6.00;99.90;;;;;;5006010;28;20036;-62
2023/03/04 06:57:05;;;;;;;11.23;3.08;;;6.00;99.90;;;;;;5048444;28;20065;-61
2023/03/04 06:59:31;;;;;;;11.32;2.42;;;6.00;99.90;;;;;;5006771;28;20049;-61
2023/03/04 07:01:57;;;;;;;22.83;4.25;;;6.10;99.90;;;;;;5070945;22;20111;-60
2023/03/04 07:04:23;;;;;;;14.07;2.40;;;6.10;99.90;;;;;;5030270;28;20041;-61
2023/03/04 07:06:49;;;;;;;18.20;2.35;;;6.10;99.90;;;;;;5045129;28;20207;-60
2023/03/04 07:09:16;;;;;;;11.38;2.72;;;6.10;99.90;;;;;;5029773;28;20036;-61
2023/03/04 07:11:42;;;;;;;11.00;2.03;;;6.10;99.90;;;;;;5039132;28;20442;-61
2023/03/04 07:14:08;;;;;;;11.20;2.05;;;6.10;99.90;;;;;;5031187;28;20036;-60
2023/03/04 07:16:34;;;;;;;12.55;2.20;;;6.20;99.90;;;;;;5030514;28;20048;-60
2023/03/04 07:19:00;;;;;;;7.78;2.13;;;6.20;99.90;;;;;;5030606;28;20106;-59
2023/03/04 07:21:26;;;;;;;14.95;2.42;;;6.20;99.90;;;;;;5047217;28;20503;-60
2023/03/04 07:23:52;;;;;;;12.02;2.50;;;6.10;99.90;;;;;;5045970;28;20047;-60
2023/03/04 07:26:18;;;;;;;11.45;2.47;;;6.10;99.90;;;;;;5047385;28;20072;-60
2023/03/04 07:28:44;;;;;;;13.95;2.00;;;6.20;99.90;;;;;;5048272;28;20049;-59
2023/03/04 07:31:23;;;;;;;13.15;2.00;;;6.20;99.90;;;;;;5046385;28;20047;-61
2023/03/04 07:33:49;;;;;;;7.72;2.10;;;6.20;99.90;;;;;;5052329;28;20043;-60
2023/03/04 07:36:15;;;;;;;8.15;2.65;;;6.20;99.90;;;;;;5027998;28;20060;-60
2023/03/04 07:38:46;;;;;;;15.10;3.20;;;6.30;99.90;;;;;;5046066;28;20048;-60
2023/03/04 07:41:12;;;;;;;18.10;3.50;;;6.40;99.90;;;;;;5030133;28;20047;-61
2023/03/04 07:43:37;;;;;;;10.60;2.13;;;6.40;99.90;;;;;;5044246;28;20053;-60
2023/03/04 07:46:03;;;;;;;11.30;2.30;;;6.40;99.90;;;;;;5047556;28;20102;-60
2023/03/04 07:48:29;;;;;;;19.65;3.47;;;6.40;99.90;;;;;;5023822;28;20041;-61
2023/03/04 07:51:02;;;;;;;9.27;2.67;;;6.40;99.90;;;;;;5035244;28;20082;-61
2023/03/04 07:53:27;;;;;;;16.50;2.75;;;6.40;99.90;;;;;;5041821;28;20049;-60
2023/03/04 07:55:53;;;;;;;18.13;3.20;;;6.40;99.90;;;;;;5025304;28;20045;-60
2023/03/04 07:58:19;;;;;;;27.98;2.63;;;6.50;99.90;;;;;;5013941;28;20106;-60
2023/03/04 08:00:45;;;;;;;18.70;3.85;;;6.50;99.90;;;;;;5040814;28;20045;-61
2023/03/04 08:03:10;;;;;;;17.63;3.03;;;6.50;99.90;;;;;;5042748;28;20049;-58
2023/03/04 08:05:39;;;;;;;10.75;2.15;;;6.50;99.90;;;;;;5046351;28;20492;-60
2023/03/04 08:08:04;;;;;;;11.40;2.20;;;6.50;99.90;;;;;;5039397;28;20120;-61
2023/03/04 08:10:30;;;;;;;10.35;2.55;;;6.50;99.90;;;;;;5029461;28;20124;-61
2023/03/04 08:12:56;;;;;;;13.52;3.70;;;6.50;99.90;;;;;;5008424;28;20071;-61
2023/03/04 08:15:22;;;;;;;12.95;2.53;;;6.50;99.90;;;;;;5045175;28;20042;-61
2023/03/04 08:17:48;;;;;;;15.20;2.55;;;6.60;99.90;;;;;;5043616;28;20424;-60
2023/03/04 08:20:13;;;;;;;14.25;2.33;;;6.60;99.90;;;;;;5044936;28;20056;-60
2023/03/04 08:22:39;;;;;;;17.33;2.67;;;6.60;99.90;;;;;;5046524;28;20146;-60
2023/03/04 08:25:05;;;;;;;15.25;3.42;;;6.60;99.90;;;;;;5023375;28;20396;-61
2023/03/04 08:27:32;;;;;;;12.50;2.50;;;6.60;99.90;;;;;;5038079;28;20079;-60
2023/03/04 08:29:58;;;;;;;13.13;2.97;;;6.60;99.90;;;;;;5012665;28;20155;-61
2023/03/04 08:32:24;;;;;;;16.95;3.15;;;6.60;99.90;;;;;;5029828;28;20515;-60
2023/03/04 08:34:50;;;;;;;18.83;2.60;;;6.60;99.90;;;;;;5046210;28;20070;-59
2023/03/04 08:37:15;;;;;;;18.88;3.25;;;6.60;99.90;;;;;;5015238;28;20524;-60
2023/03/04 08:39:41;;;;;;;15.95;2.58;;;6.60;99.90;;;;;;5038731;28;20063;-59
2023/03/04 08:42:07;;;;;;;15.40;3.67;;;6.60;99.90;;;;;;5041820;28;20094;-62
2023/03/04 08:44:32;;;;;;;12.25;2.53;;;6.70;99.90;;;;;;5044496;28;20534;-61
2023/03/04 08:46:58;;;;;;;12.07;2.13;;;6.70;99.90;;;;;;5043630;28;20119;-61
2023/03/04 08:49:24;;;;;;;18.38;2.88;;;6.80;99.90;;;;;;5035820;28;20036;-61
2023/03/04 08:51:49;;;;;;;17.35;3.08;;;6.80;99.90;;;;;;5036782;28;20060;-60
2023/03/04 08:54:15;;;;;;;16.35;4.30;;;6.90;99.90;;;;;;5039858;28;20724;-60
2023/03/04 08:56:41;;;;;;;10.20;2.10;;;6.80;99.90;;;;;;5031863;28;20399;-61
2023/03/04 08:59:07;;;;;;;16.35;3.28;;;6.80;99.90;;;;;;5022602;28;20064;-60
2023/03/04 09:01:32;;;;;;;15.93;2.65;;;6.90;99.90;;;;;;5018740;28;20573;-60
2023/03/04 09:03:58;;;;;;;15.23;2.55;;;6.90;99.90;;;;;;5047650;28;20044;-61
2023/03/04 09:06:24;;;;;;;19.33;2.83;;;6.90;99.90;;;;;;5040191;28;20534;-61
2023/03/04 09:08:49;;;;;;;20.20;3.08;;;6.90;99.90;;;;;;5029520;28;20041;-60
2023/03/04 09:11:15;;;;;;;13.55;2.33;;;7.00;99.90;;;;;;5027990;28;20498;-60
2023/03/04 09:13:41;;;;;;;12.98;2.58;;;6.90;99.90;;;;;;5040955;28;20037;-61
2023/03/04 09:16:12;;;;;;;11.88;2.38;;;6.90;99.90;;;;;;5026401;28;20389;-59
2023/03/04 09:18:38;;;;;;;17.63;4.75;;;7.00;99.90;;;;;;5044350;28;20036;-60
2023/03/04 09:21:05;;;;;;;20.90;2.85;;;7.00;99.90;;;;;;5024667;28;20099;-61
2023/03/04 09:23:31;;;;;;;16.75;3.50;;;7.00;99.90;;;;;;5029032;28;20049;-61
2023/03/04 09:25:56;;;;;;;14.80;2.55;;;7.00;99.90;;;;;;5044654;28;20446;-61
2023/03/04 09:28:22;;;;;;;15.48;3.22;;;7.00;99.90;;;;;;5013955;28;20483;-61
2023/03/04 09:30:48;;;;;;;18.38;2.95;;;7.00;99.90;;;;;;5045606;28;20499;-58
2023/03/04 09:33:14;;;;;;;13.63;2.83;;;7.00;99.90;;;;;;5045348;28;20040;-60
2023/03/04 09:35:39;;;;;;;13.10;2.40;;;7.00;99.90;;;;;;5042992;28;20120;-60
2023/03/04 09:38:05;;;;;;;15.70;2.35;;;7.00;99.90;;;;;;5025425;28;20053;-59
2023/03/04 09:40:44;;;;;;;12.07;2.53;;;7.00;99.90;;;;;;5039766;28;20504;-61
2023/03/04 09:43:19;;;;;;;18.23;3.80;;;7.10;99.90;;;;;;5031751;28;20060;-60
2023/03/04 09:45:55;;;;;;;15.02;2.47;;;7.10;99.90;;;;;;5045181;28;20343;-60
2023/03/04 09:48:26;;;;;;;12.85;2.47;;;7.00;99.90;;;;;;5025996;28;20033;-61
2023/03/04 09:51:18;;;;;;;13.18;2.20;;;7.00;99.90;;;;;;5047006;28;20040;-61
2023/03/04 09:53:56;;;;;;;14.23;2.40;;;7.00;99.90;;;;;;5041930;28;20048;-60
2023/03/04 09:56:22;;;;;;;11.85;2.28;;;7.00;99.90;;;;;;5048340;28;20060;-61
2023/03/04 09:59:23;;;;;;;12.57;3.17;;;7.00;99.90;;;;;;5026276;28;20136;-60
2023/03/04 10:02:02;;;;;;;13.48;2.47;;;7.10;99.90;;;;;;5018353;28;20127;-60
2023/03/04 10:04:39;;;;;;;14.00;3.83;;;7.10;99.90;;;;;;5023677;28;20144;-61
2023/03/04 10:07:16;;;;;;;11.00;2.53;;;7.10;99.90;;;;;;5039826;28;20094;-59
2023/03/04 10:09:54;;;;;;;15.98;3.05;;;7.20;99.90;;;;;;5041303;28;20033;-60
2023/03/04 10:12:24;;;;;;;8.65;1.52;;;7.20;99.90;;;;;;5026251;28;20061;-58
2023/03/04 10:15:28;;;;;;;12.02;1.98;;;7.20;99.90;;;;;;5046283;28;20037;-61
2023/03/04 10:18:02;;;;;;;10.45;1.70;;;7.20;99.90;;;;;;5042390;28;20053;-61
2023/03/04 10:20:43;;;;;;;11.82;2.05;;;7.10;99.90;;;;;;5045359;28;20079;-61
2023/03/04 10:23:14;;;;;;;9.77;2.08;;;7.10;99.90;;;;;;5022560;28;20045;-61
2023/03/04 10:25:45;;;;;;;11.93;2.38;;;7.20;99.90;;;;;;5050628;28;20047;-61
2023/03/04 10:28:14;;;;;;;10.23;2.45;;;7.10;99.90;;;;;;5047608;28;20048;-61
2023/03/04 10:30:48;;;;;;;11.77;2.25;;;7.10;99.90;;;;;;5034942;28;20080;-61
2023/03/04 10:33:29;;;;;;;5.82;1.20;;;7.10;99.90;;;;;;5049382;28;20499;-61
2023/03/04 10:36:31;;;;;;;6.47;1.38;;;7.10;99.90;;;;;;5032375;28;20166;-61
2023/03/04 10:39:18;;;;;;;8.13;1.65;;;7.10;99.90;;;;;;5026058;28;20048;-61
2023/03/04 10:41:52;;;;;;;5.80;1.73;;;7.20;99.90;;;;;;5033665;28;20045;-59
2023/03/04 10:44:18;;;;;;;11.10;1.90;;;7.10;99.90;;;;;;5032503;28;20088;-60
2023/03/04 10:46:46;;;;;;;11.77;1.92;;;7.10;99.90;;;;;;5049531;28;20478;-61
2023/03/04 10:49:15;;;;;;;14.05;2.08;;;7.20;99.90;;;;;;5047737;28;20041;-61
2023/03/04 10:52:02;;;;;;;11.00;2.05;;;7.20;99.90;;;;;;5045529;28;20492;-61
2023/03/04 10:54:30;;;;;;;12.00;2.25;;;7.30;99.90;;;;;;5035344;28;20081;-61
2023/03/04 10:57:05;;;;;;;16.92;3.40;;;7.30;99.90;;;;;;5047180;28;20487;-60
2023/03/04 10:59:49;;;;;;;12.82;2.00;;;7.40;99.90;;;;;;5044396;28;20076;-58
2023/03/04 11:02:27;;;;;;;13.27;2.40;;;7.50;99.90;;;;;;5047114;28;20052;-61
2023/03/04 11:05:10;;;;;;;9.93;2.35;;;7.70;99.90;;;;;;5044841;28;20095;-61
2023/03/04 11:07:42;;;;;;;13.45;2.05;;;7.80;99.90;;;;;;5032418;28;20028;-59
2023/03/04 11:10:14;;;;;;;16.10;2.80;;;7.80;99.90;;;;;;5051104;28;20048;-61
2023/03/04 11:12:40;;;;;;;16.15;2.17;;;7.80;99.90;;;;;;5044277;28;20044;-61
2023/03/04 11:15:18;;;;;;;9.60;2.00;;;7.80;99.90;;;;;;5049267;28;20056;-61
2023/03/04 11:17:51;;;;;;;14.40;2.30;;;7.80;99.90;;;;;;5041095;28;20443;-60
2023/03/04 11:20:26;;;;;;;12.52;2.65;;;7.80;99.90;;;;;;5034545;28;20083;-61
2023/03/04 11:22:53;;;;;;;17.00;3.63;;;7.80;99.90;;;;;;5038959;28;20404;-60
2023/03/04 11:25:39;;;;;;;19.30;4.05;;;7.80;99.90;;;;;;5041153;28;20041;-60
2023/03/04 11:28:36;;;;;;;15.10;3.00;;;7.80;99.90;;;;;;5030656;28;20119;-61
2023/03/04 11:31:16;;;;;;;10.20;2.42;;;7.80;99.90;;;;;;5042359;28;20049;-60
2023/03/04 11:33:55;;;;;;;18.88;3.47;;;7.80;99.90;;;;;;5037931;28;20056;-61
2023/03/04 11:36:34;;;;;;;12.52;2.70;;;8.10;99.90;;;;;;5044539;28;20080;-61
2023/03/04 11:39:03;;;;;;;18.20;3.47;;;8.10;99.90;;;;;;5040046;28;20098;-61
2023/03/04 11:41:34;;;;;;;27.17;5.68;;;8.10;99.90;;;;;;5043560;28;20049;-62
2023/03/04 11:44:00;;;;;;;21.58;4.30;;;7.80;99.90;;;;;;5037532;28;20045;-61
2023/03/04 11:46:32;;;;;;;17.95;3.10;;;7.40;99.90;;;;;;5036737;28;20052;-61
2023/03/04 11:49:07;;;;;;;20.98;3.47;;;7.30;99.90;;;;;;5029975;28;20036;-61
2023/03/04 11:51:48;;;;;;;16.73;2.80;;;7.30;99.90;;;;;;5045366;28;20068;-60
2023/03/04 11:54:46;;;;;;;14.35;2.55;;;7.40;99.90;;;;;;5043009;28;20204;-60
2023/03/04 11:57:17;;;;;;;9.95;2.30;;;7.50;99.90;;;;;;5006184;28;20131;-64
2023/03/04 11:59:52;;;;;;;10.50;1.92;;;7.80;99.90;;;;;;5042365;28;20048;-61
2023/03/04 12:02:28;;;;;;;15.43;2.55;;;8.10;99.90;;;;;;5042720;28;20404;-61
2023/03/04 12:05:09;;;;;;;15.13;2.75;;;8.30;99.90;;;;;;5025910;28;20040;-61
2023/03/04 12:08:02;;;;;;;20.90;3.30;;;8.30;99.90;;;;;;5025191;28;20037;-61
2023/03/04 12:11:03;;;;;;;10.52;2.13;;;8.70;99.90;;;;;;5042948;28;20049;-61
2023/03/04 12:14:00;;;;;;;17.30;2.92;;;8.70;99.90;;;;;;5031260;28;20168;-62
2023/03/04 12:16:46;;;;;;;14.48;3.10;;;8.50;99.90;;;;;;5042563;28;20041;-61
2023/03/04 12:19:29;;;;;;;17.65;2.83;;;8.20;99.90;;;;;;5038728;28;20066;-62
2023/03/04 12:22:01;;;;;;;21.15;2.95;;;8.00;99.90;;;;;;5041880;28;20094;-60
2023/03/04 12:24:29;;;;;;;18.88;2.78;;;7.90;99.90;;;;;;5024579;28;20105;-61
2023/03/04 12:27:16;;;;;;;19.90;3.72;;;7.90;99.90;;;;;;5058334;28;20044;-62
2023/03/04 12:30:27;;;;;;;12.43;2.58;;;7.80;99.90;;;;;;5025664;28;20572;-61
2023/03/04 12:33:14;;;;;;;11.82;2.10;;;8.00;99.90;;;;;;5038946;22;20044;-58
2023/03/04 12:35:44;;;;;;;10.60;2.50;;;8.20;99.90;;;;;;5043316;28;20064;-59
2023/03/04 12:38:29;;;;;;;12.63;2.20;;;8.40;99.90;;;;;;5041396;28;20048;-58
2023/03/04 12:41:22;;;;;;;10.23;2.15;;;8.80;99.90;;;;;;5034892;28;20071;-59
2023/03/04 12:44:19;;;;;;;16.17;2.40;;;9.00;99.90;;;;;;5042726;28;20056;-59
2023/03/04 12:47:10;;;;;;;16.33;2.50;;;8.70;99.90;;;;;;5034642;28;20300;-60
2023/03/04 12:50:17;;;;;;;18.30;3.75;;;8.50;99.90;;;;;;5014339;28;20057;-58
2023/03/04 12:53:12;;;;;;;19.92;3.80;;;8.40;99.90;;;;;;5036220;28;20046;-60
2023/03/04 12:55:41;;;;;;;17.48;2.83;;;8.40;99.90;;;;;;5045453;28;20033;-60
2023/03/04 12:58:25;;;;;;;16.33;2.97;;;8.30;99.90;;;;;;5041650;28;20038;-59
2023/03/04 13:03:51;;;;;;;13.95;3.13;;;8.40;99.90;;;;;;5028522;28;20048;-58
2023/03/04 13:06:34;;;;;;;12.70;3.22;;;8.60;99.90;;;;;;5018934;28;20044;-59